Time;durP1;ratioP1;P1;durP2;ratioP2;P2;SDS_P1;SDS_P2;PMS_P1;PMS_P2;Temp;Humidity;BMP_temperature;BMP_pressure;BME280_temperature;BME280_humidity;BME280_pressure;Samples;Min_cycle;Max_cycle;Signal;HPM_P1;HPM_P2
2021/07/27 00:04:59;;;;;;;15.18;9.90;;;;;;;24.57;61.69;100655.13;1728974;82;20936;-59
2021/07/27 00:11:21;;;;;;;16.30;8.35;;;;;;;24.65;61.67;100646.22;1764082;81;20944;-61
2021/07/27 00:17:17;;;;;;;11.50;8.20;;;;;;;24.57;61.84;100642.79;1761814;81;20959;-60
2021/07/27 00:23:39;;;;;;;12.55;8.25;;;;;;;24.42;61.87;100643.92;1765052;81;20991;-59
2021/07/27 00:29:36;;;;;;;13.80;8.78;;;;;;;24.47;61.91;100633.67;1757850;81;20998;-61
2021/07/27 00:35:33;;;;;;;17.10;10.30;;;;;;;24.52;61.93;100637.43;1763202;81;20979;-60
2021/07/27 00:41:29;;;;;;;15.80;9.25;;;;;;;24.43;62.04;100632.66;1759859;79;20979;-59
2021/07/27 00:48:04;;;;;;;14.20;8.55;;;;;;;24.34;62.32;100624.07;1788061;79;21022;-59
2021/07/27 00:54:01;;;;;;;20.75;10.65;;;;;;;24.34;62.73;100626.27;1781849;79;21023;-60
2021/07/27 00:59:59;;;;;;;16.90;9.88;;;;;;;24.40;62.66;100633.84;1789769;79;20916;-60
2021/07/27 01:05:58;;;;;;;20.92;12.58;;;;;;;24.34;62.62;100624.07;1787372;79;21545;-60
2021/07/27 01:11:49;;;;;;;24.63;12.70;;;;;;;24.20;62.00;100628.19;1783281;79;20114;-61
2021/07/27 01:17:45;;;;;;;23.40;13.28;;;;;;;24.04;61.60;100629.03;1783983;79;21509;-60
2021/07/27 01:42:38;;;;;;;29.32;15.58;;;;;;;23.36;62.03;100635.38;1780640;79;21486;-69
2021/07/27 01:49:06;;;;;;;26.00;15.63;;;;;;;23.25;62.48;100642.93;1784391;79;21422;-68
2021/07/27 01:55:08;;;;;;;24.10;15.35;;;;;;;23.17;62.92;100649.86;1782901;79;21431;-67
2021/07/27 02:01:04;;;;;;;17.70;13.45;;;;;;;23.09;63.55;100639.58;1784640;79;21026;-68
2021/07/27 02:07:02;;;;;;;21.45;15.43;;;;;;;23.07;64.03;100632.20;1784843;79;20955;-67
2021/07/27 02:13:15;;;;;;;22.15;14.83;;;;;;;23.05;64.69;100635.80;1785510;79;20983;-67
2021/07/27 02:19:14;;;;;;;20.62;12.63;;;;;;;23.05;65.31;100628.41;1770552;79;20972;-67
2021/07/27 02:25:13;;;;;;;17.87;12.23;;;;;;;23.16;65.31;100624.18;1781942;79;21526;-65
2021/07/27 02:31:16;;;;;;;17.60;11.38;;;;;;;23.38;64.76;100631.77;1782814;79;20924;-66
2021/07/27 02:37:03;;;;;;;21.85;11.60;;;;;;;23.54;64.41;100626.33;1782243;79;20097;-64
2021/07/27 02:43:02;;;;;;;19.67;11.35;;;;;;;23.71;64.37;100627.69;1780186;79;21556;-63
2021/07/27 02:49:35;;;;;;;20.02;12.18;;;;;;;23.87;64.34;100633.74;1783509;79;20881;-63
2021/07/27 02:55:36;;;;;;;20.60;11.90;;;;;;;24.04;63.83;100635.88;1788295;79;21478;-64
2021/07/27 03:01:33;;;;;;;27.40;12.95;;;;;;;23.93;63.80;100639.38;1785429;79;20964;-64
2021/07/27 03:13:42;;;;;;;26.30;15.25;;;;;;;23.90;63.15;100630.40;1783093;79;20946;-66
2021/07/27 03:19:40;;;;;;;28.42;15.58;;;;;;;23.75;62.62;100629.52;1781895;79;20967;-64
2021/07/27 03:25:39;;;;;;;25.10;15.20;;;;;;;23.70;62.81;100624.69;1784994;79;21099;-67
2021/07/27 03:31:36;;;;;;;31.62;16.55;;;;;;;23.71;62.95;100628.49;1767700;80;20987;-66
2021/07/27 03:37:33;;;;;;;28.35;17.15;;;;;;;23.75;62.69;100619.14;1766198;81;20959;-66
2021/07/27 03:43:30;;;;;;;30.62;17.57;;;;;;;23.77;62.38;100623.74;1773506;79;20975;-66
2021/07/27 03:50:04;;;;;;;21.00;13.55;;;;;;;24.00;63.71;100616.52;1783372;79;21485;-65
2021/07/27 03:56:01;;;;;;;24.77;14.00;;;;;;;24.12;63.87;100609.98;1779757;79;21482;-64
2021/07/27 04:01:59;;;;;;;11.80;9.28;;;;;;;25.01;61.89;100613.36;1781135;79;21018;-65
2021/07/27 04:07:57;;;;;;;21.35;11.78;;;;;;;25.86;57.93;100604.41;1779351;79;21490;-65
2021/07/27 04:13:55;;;;;;;17.57;11.43;;;;;;;26.26;54.42;100613.24;1788151;79;21090;-65
2021/07/27 04:19:54;;;;;;;26.57;15.25;;;;;;;26.42;50.04;100608.70;1787289;79;20860;-67
2021/07/27 04:25:51;;;;;;;33.88;16.90;;;;;;;26.48;50.63;100615.08;1782589;79;21003;-67
2021/07/27 04:31:51;;;;;;;24.25;16.30;;;;;;;26.68;54.37;100618.41;1778075;79;20975;-64
2021/07/27 04:37:51;;;;;;;16.87;9.58;;;;;;;27.85;49.76;100612.17;1786346;79;21002;-64
2021/07/27 04:43:48;;;;;;;17.62;8.93;;;;;;;29.56;41.75;100608.71;1777761;79;21526;-66
2021/07/27 04:50:20;;;;;;;13.55;8.35;;;;;;;30.80;38.14;100606.80;1783411;79;20971;-65
2021/07/27 04:56:17;;;;;;;15.40;8.55;;;;;;;32.12;34.78;100609.62;1716845;82;20909;-66
2021/07/27 05:02:15;;;;;;;13.48;8.15;;;;;;;32.93;34.08;100606.87;1707013;84;20952;-66
2021/07/27 05:08:15;;;;;;;14.63;9.48;;;;;;;33.70;33.86;100604.38;1765111;81;20995;-65
2021/07/27 05:14:12;;;;;;;15.88;9.15;;;;;;;34.76;33.49;100595.88;1766499;81;20923;-66
2021/07/27 05:20:11;;;;;;;21.17;10.98;;;;;;;35.60;33.34;100592.87;1766402;81;20978;-68
2021/07/27 05:26:08;;;;;;;16.73;8.93;;;;;;;36.11;33.04;100592.71;1767039;81;20964;-67
2021/07/27 05:32:06;;;;;;;19.62;9.28;;;;;;;36.25;32.98;100597.00;1764978;81;20983;-66
2021/07/27 05:37:56;;;;;;;13.88;8.60;;;;;;;36.82;32.01;100602.14;1766908;81;20120;-65
2021/07/27 05:43:41;;;;;;;15.80;8.48;;;;;;;37.09;31.76;100601.01;1751713;80;20932;-67
2021/07/27 05:53:41;;;;;;;21.73;7.12;;;;;;;38.11;28.05;100604.16;1713258;83;21479;-66
2021/07/27 06:00:01;;;;;;;16.52;6.45;;;;;;;38.70;27.48;100600.84;1717148;83;20952;-66
2021/07/27 06:06:00;;;;;;;14.87;6.40;;;;;;;38.62;27.43;100599.23;1711095;82;21543;-67
2021/07/27 06:08:27;;;;;;;;;;;;;;;38.44;28.28;100602.89;1724868;81;20984;-66
2021/07/27 06:10:53;;;;;;;10.65;6.05;;;;;;;38.54;27.44;100610.46;1730847;81;20163;-68
2021/07/27 06:13:20;;;;;;;10.13;6.33;;;;;;;38.78;26.52;100607.21;1739829;81;20957;-68
2021/07/27 06:15:48;;;;;;;10.35;5.95;;;;;;;39.00;25.95;100609.30;1739701;81;20982;-69
2021/07/27 06:18:16;;;;;;;8.83;5.87;;;;;;;39.01;25.38;100608.11;1728558;81;21077;-68
2021/07/27 06:20:43;;;;;;;21.68;6.25;;;;;;;38.95;25.67;100606.33;1740690;81;20889;-68
2021/07/27 06:23:09;;;;;;;13.93;7.10;;;;;;;38.70;25.28;100603.65;1738366;80;21553;-67
2021/07/27 06:25:39;;;;;;;13.98;6.92;;;;;;;38.09;26.13;100606.54;1735182;81;21070;-68
2021/07/27 06:28:06;;;;;;;13.43;6.60;;;;;;;37.37;27.38;100616.27;1733987;81;21546;-67
2021/07/27 06:30:32;;;;;;;11.18;6.62;;;;;;;36.76;28.24;100614.03;1728699;81;20996;-68
2021/07/27 06:32:59;;;;;;;16.00;7.08;;;;;;;36.33;28.86;100607.63;1731786;81;21582;-69
2021/07/27 06:35:25;;;;;;;23.07;7.60;;;;;;;35.98;28.74;100613.13;1728810;81;20940;-68
2021/07/27 06:37:53;;;;;;;26.57;7.53;;;;;;;35.68;28.69;100606.30;1729449;81;22078;-67
2021/07/27 06:40:20;;;;;;;13.58;7.15;;;;;;;35.37;30.14;100608.39;1735002;81;21202;-68
2021/07/27 06:42:47;;;;;;;11.83;6.83;;;;;;;35.15;30.40;100614.30;1735714;80;20944;-68
2021/07/27 06:45:16;;;;;;;12.10;6.12;;;;;;;34.74;30.97;100607.39;1778297;79;21481;-68
2021/07/27 06:47:43;;;;;;;10.55;6.65;;;;;;;34.33;31.48;100617.56;1784865;79;21951;-67
2021/07/27 06:50:11;;;;;;;10.40;6.62;;;;;;;34.10;31.38;100612.83;1788012;79;21133;-67
2021/07/27 06:52:37;;;;;;;12.68;5.97;;;;;;;34.08;30.92;100615.16;1786987;79;21807;-67
2021/07/27 06:55:06;;;;;;;9.13;6.17;;;;;;;34.00;30.66;100613.47;1784084;79;20955;-66
2021/07/27 06:57:33;;;;;;;10.23;6.17;;;;;;;33.92;31.26;100613.91;1779667;79;20904;-67
2021/07/27 07:00:00;;;;;;;12.23;6.42;;;;;;;33.81;31.98;100611.56;1788896;79;20950;-67
2021/07/27 07:02:29;;;;;;;20.68;6.58;;;;;;;33.76;32.11;100618.80;1784835;79;21436;-66
2021/07/27 07:04:55;;;;;;;14.45;6.53;;;;;;;33.82;32.13;100615.92;1781152;79;21830;-68
2021/07/27 07:07:21;;;;;;;17.12;5.97;;;;;;;33.85;30.50;100613.81;1780429;79;21029;-69
2021/07/27 07:09:48;;;;;;;12.35;6.40;;;;;;;33.65;30.87;100618.00;1784874;79;20951;-68
2021/07/27 07:12:14;;;;;;;11.28;5.05;;;;;;;33.42;29.82;100616.61;1782773;79;21029;-68
2021/07/27 07:14:41;;;;;;;11.10;6.05;;;;;;;33.28;30.82;100615.73;1785839;79;21011;-68
2021/07/27 07:17:12;;;;;;;13.78;5.42;;;;;;;33.23;30.92;100607.72;1781665;79;21101;-68
2021/07/27 07:19:38;;;;;;;14.38;5.45;;;;;;;33.21;30.95;100617.58;1782532;79;21042;-68
2021/07/27 07:22:05;;;;;;;13.72;6.42;;;;;;;33.24;31.38;100616.84;1790714;79;21519;-67
2021/07/27 07:24:33;;;;;;;33.63;8.20;;;;;;;33.24;31.71;100616.25;1792140;79;20977;-67
2021/07/27 07:26:59;;;;;;;25.68;7.45;;;;;;;33.27;31.64;100622.45;1792896;79;21573;-67
2021/07/27 07:29:26;;;;;;;21.52;7.47;;;;;;;33.16;31.78;100622.22;1792812;79;21941;-67
2021/07/27 07:31:53;;;;;;;25.10;7.33;;;;;;;33.12;32.46;100621.94;1794191;79;20963;-60
2021/07/27 07:34:19;;;;;;;35.85;10.68;;;;;;;33.13;33.08;100625.73;1789941;79;21198;-60
2021/07/27 07:36:46;;;;;;;43.80;10.38;;;;;;;33.18;32.51;100621.86;1793296;79;21592;-59
2021/07/27 07:39:13;;;;;;;45.73;9.93;;;;;;;33.19;33.12;100627.05;1790178;79;20888;-60
2021/07/27 07:41:39;;;;;;;26.15;8.43;;;;;;;33.18;32.92;100630.19;1794504;79;23278;-61
2021/07/27 07:44:06;;;;;;;26.35;9.48;;;;;;;33.15;32.80;100628.94;1783711;79;21105;-61
2021/07/27 07:46:32;;;;;;;38.02;13.48;;;;;;;33.21;33.27;100626.70;1783370;79;21517;-61
2021/07/27 07:48:59;;;;;;;65.30;25.10;;;;;;;33.21;33.76;100634.24;1784788;79;21041;-60
2021/07/27 07:51:26;;;;;;;55.48;18.10;;;;;;;33.19;33.07;100631.20;1790462;79;20960;-61
2021/07/27 07:53:53;;;;;;;29.23;9.23;;;;;;;33.21;33.01;100628.09;1786389;79;22055;-60
2021/07/27 07:56:20;;;;;;;33.03;12.10;;;;;;;33.24;33.59;100630.73;1782337;79;20928;-62
2021/07/27 07:58:47;;;;;;;35.28;14.75;;;;;;;33.25;33.73;100627.58;1782541;79;21553;-62
2021/07/27 08:01:14;;;;;;;23.50;9.80;;;;;;;33.25;34.61;100622.63;1784367;79;21047;-61
2021/07/27 08:03:41;;;;;;;26.80;8.40;;;;;;;33.11;35.59;100631.42;1785082;79;20936;-63
2021/07/27 08:06:08;;;;;;;25.85;11.08;;;;;;;33.04;35.63;100621.56;1786335;79;21797;-60
2021/07/27 08:08:36;;;;;;;28.98;10.95;;;;;;;33.01;36.04;100631.45;1784620;79;20977;-61
2021/07/27 08:11:03;;;;;;;19.55;8.88;;;;;;;32.90;36.41;100624.27;1787285;79;20990;-61
2021/07/27 08:13:30;;;;;;;32.33;10.93;;;;;;;32.85;36.72;100620.41;1788417;79;20963;-62
2021/07/27 08:15:57;;;;;;;27.20;10.35;;;;;;;32.90;36.77;100622.88;1784675;79;20953;-61
2021/07/27 08:18:23;;;;;;;24.75;9.60;;;;;;;32.81;36.72;100619.52;1784370;79;21541;-61
2021/07/27 08:20:50;;;;;;;32.77;11.43;;;;;;;32.65;37.52;100627.27;1782512;79;21041;-61
2021/07/27 08:23:17;;;;;;;25.95;10.78;;;;;;;32.59;37.52;100616.83;1783057;79;20920;-60
2021/07/27 08:25:44;;;;;;;23.93;11.07;;;;;;;32.63;38.04;100619.91;1783715;79;20868;-63
2021/07/27 08:28:10;;;;;;;26.55;11.38;;;;;;;32.66;38.57;100613.66;1786386;79;21011;-61
2021/07/27 08:30:37;;;;;;;23.10;11.03;;;;;;;32.63;39.01;100615.74;1781282;79;21134;-61
2021/07/27 08:33:04;;;;;;;26.93;11.60;;;;;;;32.62;39.46;100621.06;1788301;79;20888;-62
2021/07/27 08:35:31;;;;;;;25.62;12.33;;;;;;;32.60;40.24;100619.84;1785826;79;20932;-61
2021/07/27 08:37:57;;;;;;;25.52;10.28;;;;;;;32.63;40.64;100624.66;1786690;79;20992;-62
2021/07/27 08:40:24;;;;;;;23.75;11.03;;;;;;;32.65;41.01;100622.31;1778675;79;21000;-61
2021/07/27 08:42:50;;;;;;;17.92;10.78;;;;;;;32.69;38.88;100616.30;1784840;79;21042;-65
2021/07/27 08:45:17;;;;;;;19.67;10.18;;;;;;;32.69;40.26;100617.69;1779464;79;20987;-61
2021/07/27 08:47:47;;;;;;;30.92;10.98;;;;;;;32.68;39.18;100618.84;1777603;79;20888;-61
2021/07/27 08:50:14;;;;;;;25.52;10.15;;;;;;;32.54;37.51;100615.16;1767750;79;20928;-61
2021/07/27 08:52:40;;;;;;;28.93;9.87;;;;;;;32.40;37.08;100615.61;1776751;79;20988;-60
2021/07/27 08:55:08;;;;;;;19.90;10.00;;;;;;;32.29;34.78;100613.20;1776771;79;21148;-61
2021/07/27 08:57:35;;;;;;;19.05;9.15;;;;;;;32.20;37.82;100612.00;1777163;79;21003;-60
2021/07/27 09:00:02;;;;;;;16.15;9.03;;;;;;;32.11;37.50;100609.95;1779388;79;21521;-60
2021/07/27 09:02:30;;;;;;;19.55;8.45;;;;;;;31.97;38.42;100607.64;1773537;79;20964;-61
2021/07/27 09:05:11;;;;;;;16.17;8.55;;;;;;;31.96;39.64;100606.02;1773729;79;26948;-62
2021/07/27 09:07:37;;;;;;;20.05;9.33;;;;;;;32.02;40.85;100616.27;1773784;79;21153;-60
2021/07/27 09:10:20;;;;;;;16.05;9.70;;;;;;;32.00;40.51;100611.08;1776803;79;21081;-61
2021/07/27 09:12:59;;;;;;;17.40;8.53;;;;;;;32.04;39.43;100605.05;1780231;79;21407;-60
2021/07/27 09:15:34;;;;;;;17.67;8.38;;;;;;;32.05;39.29;100606.67;1777295;79;20955;-60
2021/07/27 09:18:15;;;;;;;23.65;9.85;;;;;;;32.02;38.75;100607.95;1779414;79;20928;-63
2021/07/27 09:20:53;;;;;;;22.00;9.10;;;;;;;32.04;40.01;100598.69;1775488;79;21770;-62
2021/07/27 09:23:25;;;;;;;16.20;8.33;;;;;;;31.97;40.09;100604.88;1771917;79;20979;-60
2021/07/27 09:26:00;;;;;;;17.70;7.37;;;;;;;31.84;40.00;100603.36;1704018;83;21064;-60
2021/07/27 09:28:27;;;;;;;12.55;7.00;;;;;;;31.78;38.09;100600.84;1743213;81;21024;-60
2021/07/27 09:31:00;;;;;;;15.03;7.15;;;;;;;31.75;37.99;100597.40;1746084;81;21114;-61
2021/07/27 09:33:34;;;;;;;10.78;5.97;;;;;;;31.70;37.15;100599.06;1740239;81;21103;-61
2021/07/27 09:36:01;;;;;;;12.20;6.87;;;;;;;31.67;34.80;100598.95;1707866;83;21000;-61
2021/07/27 09:38:32;;;;;;;16.15;7.17;;;;;;;31.65;35.82;100589.63;1746604;81;20889;-61
2021/07/27 09:41:04;;;;;;;13.10;5.80;;;;;;;31.64;37.14;100589.98;1745067;81;21055;-61
2021/07/27 09:43:32;;;;;;;15.88;7.95;;;;;;;31.64;34.86;100588.03;1709957;83;20976;-60
2021/07/27 09:46:02;;;;;;;13.25;6.58;;;;;;;31.67;37.14;100586.49;1732869;81;21744;-61
2021/07/27 09:48:29;;;;;;;11.30;6.40;;;;;;;31.69;37.14;100596.66;1774948;80;21024;-60
2021/07/27 09:51:00;;;;;;;13.58;7.10;;;;;;;31.64;35.61;100589.98;1772015;80;20936;-61
2021/07/27 09:53:28;;;;;;;13.88;6.25;;;;;;;31.55;36.87;100595.66;1776981;80;21016;-61
2021/07/27 09:55:55;;;;;;;;;;;;;;;31.51;34.55;100596.95;1752863;80;20920;-61
2021/07/27 09:58:21;;;;;;;13.35;7.28;;;;;;;31.42;35.52;100590.20;1777829;80;23214;-61
2021/07/27 10:01:02;;;;;;;20.88;7.35;;;;;;;31.36;35.62;100597.72;1734276;81;21051;-62
2021/07/27 10:03:34;;;;;;;15.48;6.28;;;;;;;31.27;35.52;100600.09;1732968;81;21158;-61
2021/07/27 10:06:03;;;;;;;13.50;5.17;;;;;;;31.05;35.62;100585.41;1770789;80;20959;-62
2021/07/27 10:08:32;;;;;;;15.55;6.28;;;;;;;30.89;35.94;100581.98;1701001;82;21019;-62
2021/07/27 10:11:12;;;;;;;12.18;6.37;;;;;;;30.78;35.59;100578.69;1731364;82;21281;-60
2021/07/27 10:13:45;;;;;;;16.25;6.45;;;;;;;30.69;36.14;100587.13;1723276;82;21031;-60
2021/07/27 10:16:23;;;;;;;13.72;6.15;;;;;;;30.58;36.75;100590.38;1724820;82;21501;-62
2021/07/27 10:18:49;;;;;;;14.80;6.30;;;;;;;30.47;36.57;100588.44;1731205;82;21067;-59
2021/07/27 10:21:25;;;;;;;14.78;6.62;;;;;;;30.40;36.06;100585.66;1725869;82;20872;-61
2021/07/27 10:23:59;;;;;;;12.18;5.47;;;;;;;30.33;35.40;100581.84;1728878;82;21446;-60
2021/07/27 10:26:32;;;;;;;9.53;5.40;;;;;;;30.23;35.49;100575.64;1729942;82;21498;-61
2021/07/27 10:28:59;;;;;;;14.00;5.97;;;;;;;30.20;35.73;100576.92;1728765;82;21031;-61
2021/07/27 10:31:39;;;;;;;12.00;5.08;;;;;;;30.14;35.04;100572.20;1725995;82;20947;-61
2021/07/27 10:34:08;;;;;;;11.22;4.80;;;;;;;30.05;35.58;100575.67;1725822;82;21053;-61
2021/07/27 10:36:42;;;;;;;14.25;4.80;;;;;;;29.99;34.54;100579.23;1730061;82;21841;-60
2021/07/27 10:39:15;;;;;;;6.78;4.53;;;;;;;29.93;34.48;100571.50;1725215;82;21010;-61
2021/07/27 10:41:49;;;;;;;11.20;4.50;;;;;;;29.87;34.33;100577.27;1728618;82;21059;-61
2021/07/27 10:44:25;;;;;;;10.43;4.42;;;;;;;29.83;34.22;100569.44;1728179;82;21133;-60
2021/07/27 10:46:50;;;;;;;10.08;4.92;;;;;;;29.83;34.38;100571.38;1732276;82;21104;-60
2021/07/27 10:49:28;;;;;;;10.23;4.55;;;;;;;29.88;34.26;100565.63;1730633;82;21887;-60
2021/07/27 10:52:01;;;;;;;9.48;4.78;;;;;;;29.98;34.28;100558.86;1725519;82;21813;-61
2021/07/27 10:54:32;;;;;;;15.25;4.70;;;;;;;30.07;33.90;100558.73;1734464;82;21067;-62
2021/07/27 10:57:06;;;;;;;7.10;4.25;;;;;;;30.10;34.24;100554.70;1731454;82;21082;-61
2021/07/27 10:59:35;;;;;;;11.70;4.37;;;;;;;30.16;34.09;100558.03;1724569;82;20959;-66
2021/07/27 11:02:10;;;;;;;13.22;4.50;;;;;;;30.24;33.07;100552.94;1734880;82;21095;-61
2021/07/27 11:04:37;;;;;;;9.70;4.30;;;;;;;30.28;32.89;100542.02;1733839;82;20995;-61
2021/07/27 11:07:36;;;;;;;12.50;4.33;;;;;;;30.23;33.10;100545.23;1731312;82;20983;-61
2021/07/27 11:10:05;;;;;;;8.70;3.80;;;;;;;30.24;32.72;100543.27;1727130;82;21004;-62
2021/07/27 11:12:38;;;;;;;11.68;4.70;;;;;;;30.29;32.66;100538.89;1733345;82;21517;-61
2021/07/27 11:15:17;;;;;;;6.03;4.35;;;;;;;30.33;32.64;100538.44;1732475;82;22417;-61
2021/07/27 11:17:49;;;;;;;12.18;5.05;;;;;;;30.39;32.87;100545.33;1731340;82;21043;-64
2021/07/27 11:20:34;;;;;;;15.08;4.17;;;;;;;30.46;32.36;100536.45;1734289;82;20960;-61
2021/07/27 11:23:08;;;;;;;6.90;4.37;;;;;;;30.50;31.87;100528.28;1733736;82;20987;-62
2021/07/27 11:25:35;;;;;;;8.25;3.98;;;;;;;30.47;31.93;100535.90;1733397;82;21604;-62
2021/07/27 11:28:11;;;;;;;8.08;4.42;;;;;;;30.44;32.04;100524.16;1729798;82;22341;-61
2021/07/27 11:30:38;;;;;;;17.40;5.05;;;;;;;30.42;32.32;100525.89;1730526;82;20990;-61
2021/07/27 11:33:14;;;;;;;11.90;3.67;;;;;;;30.45;32.69;100520.22;1731114;82;20924;-62
2021/07/27 11:35:48;;;;;;;7.03;4.40;;;;;;;30.50;32.40;100525.52;1728384;82;20975;-63
2021/07/27 11:38:29;;;;;;;8.63;4.35;;;;;;;30.53;31.68;100525.61;1731306;82;20955;-61
2021/07/27 11:41:09;;;;;;;8.90;3.90;;;;;;;30.56;31.66;100519.97;1727567;82;21773;-62
2021/07/27 11:43:42;;;;;;;9.80;4.03;;;;;;;30.54;31.77;100525.84;1731717;82;21573;-61
2021/07/27 11:46:12;;;;;;;8.43;3.87;;;;;;;30.52;31.90;100522.64;1721099;82;21043;-63
2021/07/27 11:48:40;;;;;;;6.28;3.77;;;;;;;30.52;31.71;100510.75;1714862;82;21589;-61
2021/07/27 11:51:06;;;;;;;10.23;3.92;;;;;;;30.51;31.31;100514.11;1719348;82;21478;-63
2021/07/27 11:53:42;;;;;;;7.08;4.08;;;;;;;30.49;31.66;100513.67;1720343;82;21138;-61
2021/07/27 11:56:16;;;;;;;4.95;3.90;;;;;;;30.47;31.10;100506.87;1719894;82;21072;-62
2021/07/27 11:58:48;;;;;;;9.68;4.33;;;;;;;30.42;31.53;100520.36;1718239;82;21067;-62
2021/07/27 12:01:15;;;;;;;7.72;3.42;;;;;;;30.35;31.84;100511.23;1722120;82;21686;-63
2021/07/27 12:03:42;;;;;;;6.90;3.62;;;;;;;30.36;31.61;100512.85;1717813;82;21829;-64
2021/07/27 12:06:11;;;;;;;7.75;3.75;;;;;;;30.40;31.49;100521.24;1719138;82;21171;-62
2021/07/27 12:12:32;;;;;;;6.20;3.67;;;;;;;30.39;31.98;100508.59;1718315;82;21505;-63
2021/07/27 12:18:28;;;;;;;9.18;3.58;;;;;;;30.34;31.46;100503.30;1717848;82;21114;-60
2021/07/27 12:24:49;;;;;;;6.00;4.03;;;;;;;30.27;31.62;100504.45;1718763;82;20956;-60
2021/07/27 12:30:47;;;;;;;8.73;4.40;;;;;;;30.19;31.67;100493.18;1713001;82;20987;-60
2021/07/27 12:36:44;;;;;;;7.17;3.72;;;;;;;30.21;31.64;100489.51;1711086;82;20976;-59
2021/07/27 12:42:40;;;;;;;7.87;3.80;;;;;;;30.30;31.87;100481.64;1708116;82;20964;-61
2021/07/27 12:48:26;;;;;;;6.83;3.83;;;;;;;30.29;31.54;100471.17;1707403;82;20980;-60
2021/07/27 12:54:58;;;;;;;8.18;3.83;;;;;;;30.29;31.31;100474.52;1771688;79;21439;-59
2021/07/27 13:01:18;;;;;;;12.05;3.90;;;;;;;30.28;31.68;100465.99;1772587;79;21080;-61
2021/07/27 13:07:15;;;;;;;7.95;3.87;;;;;;;30.24;31.76;100454.81;1708633;82;21531;-60
2021/07/27 13:13:35;;;;;;;8.15;4.15;;;;;;;30.21;31.77;100459.11;1772697;79;20983;-61
2021/07/27 13:19:32;;;;;;;9.55;4.17;;;;;;;30.18;31.93;100449.31;1778735;79;20959;-61
2021/07/27 13:25:53;;;;;;;8.80;3.98;;;;;;;30.18;31.57;100447.37;1772008;79;20963;-60
2021/07/27 13:31:50;;;;;;;8.33;4.05;;;;;;;30.17;31.89;100442.98;1774560;79;20896;-60
2021/07/27 13:37:47;;;;;;;8.80;4.12;;;;;;;30.11;31.87;100425.60;1775528;79;20967;-61
2021/07/27 13:43:43;;;;;;;8.03;3.83;;;;;;;30.09;31.31;100426.54;1710416;82;21554;-60
2021/07/27 13:53:10;;;;;;;14.10;4.45;;;;;;;30.05;31.12;100422.30;1711886;82;20978;-61
2021/07/27 13:59:43;;;;;;;11.83;4.33;;;;;;;30.03;31.88;100417.69;1717102;82;21032;-63
2021/07/27 14:02:09;;;;;;;9.95;4.70;;;;;;;29.99;31.83;100410.69;1711411;82;21293;-62
2021/07/27 14:04:36;;;;;;;10.40;3.60;;;;;;;29.98;32.02;100405.51;1717755;82;21055;-64
2021/07/27 14:07:03;;;;;;;11.53;4.37;;;;;;;29.98;32.54;100403.54;1714517;82;21156;-63
2021/07/27 14:09:30;;;;;;;9.10;4.10;;;;;;;30.00;32.75;100403.19;1711298;82;21039;-63
2021/07/27 14:11:56;;;;;;;13.60;4.67;;;;;;;30.02;32.66;100397.55;1781636;79;20975;-62
2021/07/27 14:14:23;;;;;;;9.98;4.40;;;;;;;30.04;32.59;100397.98;1775003;79;21683;-63
2021/07/27 14:16:50;;;;;;;10.95;4.33;;;;;;;30.05;32.20;100398.23;1773226;79;21577;-62
2021/07/27 14:19:16;;;;;;;9.65;4.20;;;;;;;30.04;32.84;100391.67;1776269;79;21819;-62
2021/07/27 14:21:43;;;;;;;10.35;4.42;;;;;;;30.02;32.96;100394.78;1770546;79;21465;-62
2021/07/27 14:24:10;;;;;;;7.08;3.70;;;;;;;30.02;32.67;100387.88;1775293;79;20992;-63
2021/07/27 14:26:37;;;;;;;31.57;7.83;;;;;;;30.02;32.98;100387.88;1778283;79;20909;-63
2021/07/27 14:29:03;;;;;;;20.20;5.30;;;;;;;30.01;32.42;100383.50;1704473;82;21047;-62
2021/07/27 14:31:30;;;;;;;7.58;4.87;;;;;;;29.99;32.84;100384.44;1719683;82;22412;-62
2021/07/27 14:33:58;;;;;;;10.23;4.67;;;;;;;30.00;32.39;100383.84;1712865;82;21003;-66
2021/07/27 14:36:25;;;;;;;;;;;;;;;29.99;32.09;100384.99;1720247;82;20952;-64
2021/07/27 14:38:53;;;;;;;5.72;4.08;;;;;;;29.98;32.77;100385.58;1712438;82;20137;-61
2021/07/27 14:41:20;;;;;;;6.65;4.12;;;;;;;29.97;33.27;100379.81;1777384;79;20972;-63
2021/07/27 14:43:47;;;;;;;12.70;4.50;;;;;;;29.98;33.26;100375.11;1773126;79;21148;-61
2021/07/27 14:46:15;;;;;;;13.25;4.65;;;;;;;29.95;33.40;100375.81;1776328;79;21027;-60
2021/07/27 14:48:42;;;;;;;11.30;5.22;;;;;;;29.94;33.54;100378.34;1775977;79;20907;-62
2021/07/27 14:51:08;;;;;;;8.45;4.12;;;;;;;29.92;33.60;100374.55;1772040;79;21534;-61
2021/07/27 14:53:35;;;;;;;20.17;5.08;;;;;;;29.92;33.52;100370.97;1779256;79;20991;-62
2021/07/27 14:56:02;;;;;;;10.20;4.80;;;;;;;29.92;33.38;100368.20;1776412;79;21132;-61
2021/07/27 15:02:03;;;;;;;10.90;4.87;;;;;;;29.92;34.49;100366.27;1776551;79;21063;-61
2021/07/27 15:08:23;;;;;;;9.95;4.45;;;;;;;29.86;34.79;100361.55;1771322;79;21569;-61
2021/07/27 15:14:20;;;;;;;7.37;4.58;;;;;;;29.84;34.19;100360.28;1713538;82;21054;-61
2021/07/27 15:20:40;;;;;;;8.98;4.60;;;;;;;29.78;34.22;100363.83;1770202;79;22524;-61
2021/07/27 15:26:41;;;;;;;11.57;4.28;;;;;;;29.73;35.38;100364.09;1775695;79;20924;-61
2021/07/27 15:32:38;;;;;;;10.82;4.72;;;;;;;29.70;35.48;100367.55;1775745;79;21028;-64
2021/07/27 15:38:34;;;;;;;29.35;6.00;;;;;;;29.66;35.50;100362.48;1772494;79;21589;-62
2021/07/27 15:44:31;;;;;;;12.00;4.50;;;;;;;29.64;35.31;100357.31;1769396;79;20944;-62
2021/07/27 15:50:16;;;;;;;19.92;4.75;;;;;;;29.65;35.51;100356.73;1762449;79;21616;-61
2021/07/27 15:56:48;;;;;;;15.18;5.87;;;;;;;29.65;35.85;100367.77;1739765;81;20929;-59
2021/07/27 15:59:14;;;;;;;19.15;5.35;;;;;;;29.63;36.34;100368.12;1737644;81;20991;-61
2021/07/27 16:01:41;;;;;;;16.02;6.22;;;;;;;29.62;36.29;100370.67;1740146;81;20940;-62
2021/07/27 16:04:07;;;;;;;13.83;5.87;;;;;;;29.59;36.44;100368.58;1739333;81;21051;-63
2021/07/27 16:06:34;;;;;;;15.03;5.00;;;;;;;29.59;36.80;100365.03;1740239;81;20971;-62
2021/07/27 16:09:01;;;;;;;14.23;6.00;;;;;;;29.58;36.57;100368.93;1741910;81;21802;-64
2021/07/27 16:11:27;;;;;;;15.75;6.22;;;;;;;29.54;36.61;100367.45;1737208;81;21072;-61
2021/07/27 16:13:54;;;;;;;11.05;5.70;;;;;;;29.51;36.73;100367.56;1738162;81;20944;-62
2021/07/27 16:16:22;;;;;;;20.20;5.92;;;;;;;29.46;36.98;100360.91;1741648;81;21087;-61
2021/07/27 16:18:49;;;;;;;14.53;6.55;;;;;;;29.45;36.93;100356.53;1738235;81;21018;-61
2021/07/27 16:21:18;;;;;;;16.17;6.30;;;;;;;29.43;36.96;100360.78;1736616;81;21018;-62
2021/07/27 16:23:45;;;;;;;15.45;6.72;;;;;;;29.41;37.05;100363.09;1739120;81;20920;-61
2021/07/27 16:26:13;;;;;;;16.87;6.37;;;;;;;29.38;37.19;100367.34;1742344;81;20963;-62
2021/07/27 16:28:40;;;;;;;;;;;;;;;29.35;37.44;100359.76;1743003;81;21015;-61
2021/07/27 16:31:07;;;;;;;10.45;6.25;;;;;;;29.32;37.54;100359.87;1742829;81;20119;-61
2021/07/27 16:33:33;;;;;;;13.68;6.67;;;;;;;29.28;37.75;100368.60;1736567;81;21201;-61
2021/07/27 16:36:00;;;;;;;18.80;7.37;;;;;;;29.23;37.94;100360.56;1737468;81;21593;-62
2021/07/27 16:38:26;;;;;;;15.40;6.70;;;;;;;29.19;38.22;100365.13;1742140;81;21554;-62
2021/07/27 16:40:53;;;;;;;12.00;5.87;;;;;;;29.16;38.50;100366.62;1741088;81;21502;-62
2021/07/27 16:43:19;;;;;;;17.40;6.72;;;;;;;29.12;38.55;100372.61;1675321;84;21510;-61
2021/07/27 16:45:46;;;;;;;14.87;7.70;;;;;;;29.09;38.89;100376.03;1702592;83;21163;-62
2021/07/27 16:48:13;;;;;;;16.77;6.53;;;;;;;29.05;38.98;100371.55;1706735;83;21548;-63
2021/07/27 16:50:39;;;;;;;13.15;5.83;;;;;;;29.01;39.29;100371.45;1688369;82;20996;-62
2021/07/27 16:53:06;;;;;;;17.25;7.47;;;;;;;28.96;39.35;100371.09;1708160;82;20956;-61
2021/07/27 16:55:34;;;;;;;23.45;6.50;;;;;;;28.94;39.52;100371.20;1717251;82;20992;-61
2021/07/27 16:58:05;;;;;;;15.30;6.10;;;;;;;28.90;39.64;100375.79;1720734;82;21241;-61